createdAt,value
2022-07-26T00:00:14.006Z,30.60
2022-07-26T00:02:48.068Z,30.60
2022-07-26T00:05:16.272Z,30.50
2022-07-26T00:07:43.748Z,30.50
2022-07-26T00:10:10.876Z,30.40
2022-07-26T00:12:38.164Z,30.40
2022-07-26T00:15:06.987Z,30.30
2022-07-26T00:17:34.026Z,30.30
2022-07-26T00:20:00.860Z,30.20
2022-07-26T00:22:39.046Z,30.20
2022-07-26T00:25:09.970Z,30.10
2022-07-26T00:27:37.522Z,30.10
2022-07-26T00:30:10.047Z,30.10
2022-07-26T00:32:37.573Z,30.10
2022-07-26T00:35:05.153Z,30.10
2022-07-26T00:37:32.344Z,30.20
2022-07-26T00:39:59.330Z,30.20
2022-07-26T00:42:26.219Z,30.20
2022-07-26T00:44:53.129Z,30.10
2022-07-26T00:47:20.088Z,30.20
2022-07-26T00:49:47.019Z,30.20
2022-07-26T00:52:14.068Z,30.20
2022-07-26T00:54:46.683Z,30.20
2022-07-26T00:57:15.166Z,30.10
2022-07-26T00:59:42.501Z,30.20
2022-07-26T01:02:10.156Z,30.10
2022-07-26T01:04:37.321Z,30.10
2022-07-26T01:07:14.727Z,30.20
2022-07-26T01:09:43.334Z,30.10
2022-07-26T01:12:10.511Z,30.10
2022-07-26T01:14:37.435Z,30.10
2022-07-26T01:17:04.542Z,30.10
2022-07-26T01:19:31.605Z,30.10
2022-07-26T01:21:58.493Z,30.00
2022-07-26T01:24:25.450Z,30.00
2022-07-26T01:26:52.418Z,30.00
2022-07-26T01:29:19.264Z,30.00
2022-07-26T01:31:46.239Z,29.90
2022-07-26T01:34:13.452Z,29.90
2022-07-26T01:36:41.791Z,29.90
2022-07-26T01:39:09.123Z,29.90
2022-07-26T01:41:37.871Z,29.90
2022-07-26T01:44:07.938Z,29.90
2022-07-26T01:46:35.833Z,29.80
2022-07-26T01:49:03.356Z,29.80
2022-07-26T01:51:30.729Z,29.80
2022-07-26T01:53:57.652Z,29.70
2022-07-26T01:56:24.614Z,29.70
2022-07-26T01:58:51.469Z,29.70
2022-07-26T02:01:39.668Z,29.70
2022-07-26T02:04:05.972Z,29.60
2022-07-26T02:06:35.806Z,29.70
2022-07-26T02:09:05.276Z,29.70
2022-07-26T02:11:34.709Z,29.70
2022-07-26T02:14:03.375Z,29.70
2022-07-26T02:16:30.357Z,29.70
2022-07-26T02:18:57.215Z,29.70
2022-07-26T02:21:24.168Z,29.70
2022-07-26T02:23:51.032Z,29.70
2022-07-26T02:26:17.914Z,29.70
2022-07-26T02:28:44.794Z,29.70
2022-07-26T02:31:11.873Z,29.70
2022-07-26T02:33:42.571Z,29.70
2022-07-26T02:36:09.449Z,29.70
2022-07-26T02:38:36.305Z,29.70
2022-07-26T02:41:03.368Z,29.70
2022-07-26T02:43:31.782Z,29.70
2022-07-26T02:46:00.959Z,29.70
2022-07-26T02:48:29.316Z,29.70
2022-07-26T02:50:56.221Z,29.70
2022-07-26T02:53:23.065Z,29.70
2022-07-26T02:55:49.920Z,29.70
2022-07-26T02:58:16.824Z,29.70
2022-07-26T03:00:43.856Z,29.60
2022-07-26T03:03:14.132Z,29.60
2022-07-26T03:05:41.375Z,29.60
2022-07-26T03:08:08.357Z,29.60
2022-07-26T03:10:35.388Z,29.60
2022-07-26T03:13:02.331Z,29.60
2022-07-26T03:15:29.442Z,29.60
2022-07-26T03:17:56.498Z,29.60
2022-07-26T03:20:23.748Z,29.50
2022-07-26T03:22:50.585Z,29.50
2022-07-26T03:25:17.524Z,29.50
2022-07-26T03:27:44.567Z,29.40
2022-07-26T03:30:12.718Z,29.40
2022-07-26T03:32:39.839Z,29.40
2022-07-26T03:35:08.170Z,29.40
2022-07-26T03:37:45.070Z,29.40
2022-07-26T03:40:17.439Z,29.40
2022-07-26T03:42:48.340Z,29.40
2022-07-26T03:45:16.312Z,29.40
2022-07-26T03:47:43.850Z,29.50
2022-07-26T03:50:11.198Z,29.50
2022-07-26T03:52:38.310Z,29.40
2022-07-26T03:55:25.990Z,29.50
2022-07-26T03:57:53.048Z,29.50
2022-07-26T04:00:19.953Z,29.50
2022-07-26T04:02:46.943Z,29.50
2022-07-26T04:05:14.029Z,29.40
2022-07-26T04:07:53.080Z,29.40
2022-07-26T04:10:21.700Z,29.40
2022-07-26T04:12:49.294Z,29.30
2022-07-26T04:15:17.237Z,29.30
2022-07-26T04:17:44.426Z,29.30
2022-07-26T04:20:12.720Z,29.20
2022-07-26T04:22:40.536Z,29.20
2022-07-26T04:25:09.309Z,29.20
2022-07-26T04:27:37.582Z,29.20
2022-07-26T04:30:08.550Z,29.20
2022-07-26T04:32:39.496Z,29.20
2022-07-26T04:35:06.588Z,29.20
2022-07-26T04:37:39.870Z,29.20
2022-07-26T04:40:07.432Z,29.20
2022-07-26T04:42:34.305Z,29.20
2022-07-26T04:45:07.540Z,29.20
2022-07-26T04:47:35.163Z,29.20
2022-07-26T04:50:02.459Z,29.20
2022-07-26T04:52:29.323Z,29.20
2022-07-26T04:54:56.201Z,29.20
2022-07-26T04:57:23.653Z,29.30
2022-07-26T05:00:09.875Z,29.30
2022-07-26T05:02:37.497Z,29.30
2022-07-26T05:05:08.366Z,29.30
2022-07-26T05:08:02.871Z,29.30
2022-07-26T05:10:32.796Z,29.30
2022-07-26T05:12:59.828Z,29.40
2022-07-26T05:15:33.003Z,29.40
2022-07-26T05:18:08.912Z,29.40
2022-07-26T05:20:38.080Z,29.40
2022-07-26T05:23:04.955Z,29.40
2022-07-26T05:25:31.961Z,29.50
2022-07-26T05:27:58.902Z,29.50
2022-07-26T05:30:26.316Z,29.50
2022-07-26T05:32:53.262Z,29.60
2022-07-26T05:35:20.295Z,29.60
2022-07-26T05:37:47.230Z,29.60
2022-07-26T05:40:14.393Z,29.60
2022-07-26T05:42:41.474Z,29.60
2022-07-26T05:45:09.024Z,29.70
2022-07-26T05:47:35.891Z,29.70
2022-07-26T05:50:03.100Z,29.80
2022-07-26T05:52:30.193Z,29.80
2022-07-26T05:54:57.061Z,29.90
2022-07-26T05:57:24.029Z,29.90
2022-07-26T05:59:51.044Z,29.90
2022-07-26T06:02:18.084Z,29.90
2022-07-26T06:04:47.315Z,30.00
2022-07-26T06:07:14.944Z,30.00
2022-07-26T06:09:41.899Z,30.00
2022-07-26T06:12:08.943Z,30.00
2022-07-26T06:14:36.031Z,30.10
2022-07-26T06:17:06.763Z,30.10
2022-07-26T06:19:33.985Z,30.10
2022-07-26T06:22:00.887Z,30.10
2022-07-26T06:24:27.990Z,30.20
2022-07-26T06:26:58.092Z,30.20
2022-07-26T06:29:32.499Z,30.20
2022-07-26T06:31:59.860Z,30.30
2022-07-26T06:34:26.980Z,30.20
2022-07-26T06:36:53.984Z,30.30
2022-07-26T06:39:21.497Z,30.30
2022-07-26T06:41:48.491Z,30.30
2022-07-26T06:44:15.530Z,30.30
2022-07-26T06:46:42.449Z,30.40
2022-07-26T06:49:09.370Z,30.40
2022-07-26T06:51:36.275Z,30.40
2022-07-26T06:54:05.793Z,30.40
2022-07-26T06:56:33.099Z,30.40
2022-07-26T06:58:59.986Z,30.50
2022-07-26T07:01:51.519Z,30.50
2022-07-26T07:04:13.728Z,30.50
2022-07-26T07:06:40.613Z,30.50
2022-07-26T07:09:08.803Z,30.60
2022-07-26T07:11:35.927Z,30.60
2022-07-26T07:14:03.522Z,30.60
2022-07-26T07:16:30.637Z,30.70
2022-07-26T07:18:57.593Z,30.70
2022-07-26T07:21:24.656Z,30.70
2022-07-26T07:23:51.509Z,30.80
2022-07-26T07:26:20.219Z,30.80
2022-07-26T07:28:47.406Z,30.90
2022-07-26T07:31:15.699Z,30.90
2022-07-26T07:33:52.776Z,31.00
2022-07-26T07:36:21.345Z,31.00
2022-07-26T07:38:49.397Z,31.10
2022-07-26T07:41:16.653Z,31.20
2022-07-26T07:43:43.594Z,31.30
2022-07-26T07:46:10.667Z,31.30
2022-07-26T07:48:45.051Z,31.40
2022-07-26T07:51:14.444Z,31.40
2022-07-26T07:53:41.342Z,31.50
2022-07-26T07:56:08.368Z,31.50
2022-07-26T07:58:35.296Z,31.60
2022-07-26T08:01:02.432Z,31.60
2022-07-26T08:03:38.656Z,31.60
2022-07-26T08:06:08.301Z,31.70
2022-07-26T08:08:48.428Z,31.80
2022-07-26T08:11:16.649Z,31.80
2022-07-26T08:13:47.721Z,31.80
2022-07-26T08:16:14.990Z,32.00
2022-07-26T08:18:56.100Z,32.10
2022-07-26T08:21:24.301Z,32.10
2022-07-26T08:23:53.755Z,32.20
2022-07-26T08:26:20.694Z,32.20
2022-07-26T08:28:48.425Z,32.30
2022-07-26T08:31:16.880Z,32.30
2022-07-26T08:33:46.087Z,32.40
2022-07-26T08:36:17.022Z,32.40
2022-07-26T08:38:44.845Z,32.40
2022-07-26T08:41:14.902Z,32.50
2022-07-26T08:43:51.390Z,32.50
2022-07-26T08:46:25.407Z,32.60
2022-07-26T08:48:54.703Z,32.60
2022-07-26T08:51:24.035Z,32.70
2022-07-26T08:54:04.096Z,32.80
2022-07-26T08:56:34.964Z,32.90
2022-07-26T08:59:07.354Z,33.20
2022-07-26T09:01:34.578Z,33.40
2022-07-26T09:04:43.613Z,33.50
2022-07-26T09:08:01.706Z,33.70
2022-07-26T09:11:03.728Z,33.80
2022-07-26T09:14:16.033Z,34.00
2022-07-26T09:17:52.967Z,34.10
2022-07-26T09:21:21.998Z,34.20
2022-07-26T09:23:48.897Z,34.30
2022-07-26T09:26:20.718Z,34.40
2022-07-26T09:29:36.256Z,34.60
2022-07-26T09:32:32.882Z,34.60
2022-07-26T09:35:50.003Z,34.70
2022-07-26T09:38:16.117Z,34.70
2022-07-26T09:40:46.817Z,34.60
2022-07-26T09:43:21.839Z,34.60
2022-07-26T09:46:05.047Z,34.50
2022-07-26T09:48:52.306Z,34.40
2022-07-26T09:51:42.765Z,34.40
2022-07-26T09:54:11.983Z,34.30
2022-07-26T09:56:52.889Z,34.30
2022-07-26T09:59:22.329Z,34.30
2022-07-26T10:01:51.248Z,34.20
2022-07-26T10:04:18.993Z,34.30
2022-07-26T10:06:46.349Z,34.30
2022-07-26T10:09:14.542Z,34.30
2022-07-26T10:11:53.537Z,34.30
2022-07-26T10:14:38.588Z,34.30
2022-07-26T10:17:31.030Z,34.30
2022-07-26T10:19:59.400Z,34.20
2022-07-26T10:22:32.075Z,34.30
2022-07-26T10:25:19.057Z,34.30
2022-07-26T10:27:54.783Z,34.30
2022-07-26T10:30:33.602Z,34.30
2022-07-26T10:33:02.250Z,34.30
2022-07-26T10:35:44.851Z,34.30
2022-07-26T10:38:26.636Z,34.30
2022-07-26T10:41:02.352Z,34.40
2022-07-26T10:43:40.711Z,34.40
2022-07-26T10:46:20.616Z,34.40
2022-07-26T10:49:03.646Z,34.40
2022-07-26T10:51:39.626Z,34.50
2022-07-26T10:54:09.693Z,34.50
2022-07-26T10:56:37.368Z,34.50
2022-07-26T10:59:06.043Z,34.50
2022-07-26T11:01:34.142Z,34.50
2022-07-26T11:04:01.295Z,34.50
2022-07-26T11:06:30.335Z,34.60
2022-07-26T11:08:57.294Z,34.70
2022-07-26T11:11:32.975Z,34.70
2022-07-26T11:14:11.351Z,34.70
2022-07-26T11:16:44.870Z,34.80
2022-07-26T11:19:18.656Z,34.80
2022-07-26T11:21:47.885Z,34.90
2022-07-26T11:24:15.141Z,34.90
2022-07-26T11:26:46.950Z,35.00
2022-07-26T11:29:16.949Z,35.00
2022-07-26T11:31:50.804Z,35.00
2022-07-26T11:34:30.863Z,35.00
2022-07-26T11:37:00.103Z,35.10
2022-07-26T11:39:33.222Z,35.10
2022-07-26T11:42:07.556Z,35.10
2022-07-26T11:44:35.405Z,35.20
2022-07-26T11:47:25.176Z,35.30
2022-07-26T11:50:12.406Z,35.30
2022-07-26T11:53:35.761Z,35.40
2022-07-26T11:56:19.192Z,35.40
2022-07-26T11:58:47.646Z,35.50
2022-07-26T12:01:17.150Z,35.50
2022-07-26T12:03:45.797Z,35.50
2022-07-26T12:06:16.720Z,35.50
2022-07-26T12:08:52.720Z,35.50
2022-07-26T12:11:26.070Z,35.50
2022-07-26T12:14:01.331Z,35.50
2022-07-26T12:16:57.773Z,35.40
2022-07-26T12:19:27.901Z,35.50
2022-07-26T12:22:08.367Z,35.60
2022-07-26T12:24:43.824Z,35.60
2022-07-26T12:27:10.706Z,35.70
2022-07-26T12:29:41.615Z,35.70
2022-07-26T12:32:15.450Z,35.80
2022-07-26T12:34:55.533Z,35.80
2022-07-26T12:37:28.254Z,35.90
2022-07-26T12:40:11.248Z,36.00
2022-07-26T12:42:40.509Z,36.00
2022-07-26T12:45:11.966Z,36.10
2022-07-26T12:47:42.434Z,36.20
2022-07-26T12:50:11.164Z,36.20
2022-07-26T12:52:39.717Z,36.20
2022-07-26T12:55:08.653Z,36.20
2022-07-26T12:57:36.881Z,36.30
2022-07-26T13:00:05.374Z,36.30
2022-07-26T13:02:32.488Z,36.30
2022-07-26T13:05:00.859Z,36.40
2022-07-26T13:07:27.872Z,36.40
2022-07-26T13:10:14.274Z,36.50
2022-07-26T13:12:41.931Z,36.50
2022-07-26T13:15:09.482Z,36.50
2022-07-26T13:17:36.423Z,36.50
2022-07-26T13:20:03.868Z,36.50
2022-07-26T13:22:30.796Z,36.60
2022-07-26T13:24:57.670Z,36.60
2022-07-26T13:27:27.578Z,36.70
2022-07-26T13:30:03.208Z,36.80
2022-07-26T13:32:30.078Z,36.90
2022-07-26T13:34:56.906Z,36.90
2022-07-26T13:37:23.813Z,37.00
2022-07-26T13:39:50.681Z,37.10
2022-07-26T13:42:19.360Z,37.20
2022-07-26T13:44:46.374Z,37.30
2022-07-26T13:47:13.365Z,37.40
2022-07-26T13:49:40.331Z,37.50
2022-07-26T13:52:10.850Z,37.60
2022-07-26T13:54:42.134Z,37.80
2022-07-26T13:57:09.031Z,38.00
2022-07-26T13:59:35.946Z,38.10
2022-07-26T14:02:05.193Z,38.30
2022-07-26T14:04:32.317Z,38.60
2022-07-26T14:06:59.192Z,38.80
2022-07-26T14:09:26.216Z,39.00
2022-07-26T14:11:53.141Z,39.30
2022-07-26T14:14:20.073Z,39.50
2022-07-26T14:16:49.397Z,39.70
2022-07-26T14:19:16.885Z,39.80
2022-07-26T14:21:47.589Z,40.00
2022-07-26T14:24:26.002Z,40.30
2022-07-26T14:26:56.870Z,40.40
2022-07-26T14:29:26.465Z,40.60
2022-07-26T14:31:53.489Z,40.80
2022-07-26T14:34:20.393Z,41.00
2022-07-26T14:36:47.394Z,41.30
2022-07-26T14:39:14.308Z,41.60
2022-07-26T14:41:41.197Z,41.90
2022-07-26T14:44:08.326Z,42.30
2022-07-26T14:46:35.862Z,42.70
2022-07-26T14:49:02.741Z,43.00
2022-07-26T14:51:29.827Z,43.30
2022-07-26T14:53:56.689Z,43.60
2022-07-26T14:56:23.625Z,43.80
2022-07-26T14:58:50.636Z,44.10
2022-07-26T15:01:17.687Z,44.30
2022-07-26T15:03:44.680Z,44.50
2022-07-26T15:06:11.796Z,44.60
2022-07-26T15:08:38.651Z,44.80
2022-07-26T15:11:06.053Z,44.90
2022-07-26T15:13:33.894Z,45.20
2022-07-26T15:16:01.084Z,45.30
2022-07-26T15:18:28.007Z,45.50
2022-07-26T15:20:54.984Z,45.70
2022-07-26T15:23:21.974Z,45.90
2022-07-26T15:25:48.923Z,46.00
2022-07-26T15:28:16.678Z,46.00
2022-07-26T15:30:43.677Z,46.10
2022-07-26T15:33:10.784Z,46.20
2022-07-26T15:35:39.033Z,46.30
2022-07-26T15:38:06.054Z,46.40
2022-07-26T15:40:33.101Z,46.50
2022-07-26T15:43:00.191Z,46.50
2022-07-26T15:45:28.019Z,46.40
2022-07-26T15:48:09.383Z,46.40
2022-07-26T15:50:43.006Z,46.40
2022-07-26T15:53:09.949Z,46.40
2022-07-26T15:55:36.858Z,46.40
2022-07-26T15:58:03.805Z,46.40
2022-07-26T16:00:30.716Z,46.30
2022-07-26T16:02:57.577Z,46.20
2022-07-26T16:05:24.556Z,45.90
2022-07-26T16:07:51.441Z,45.60
2022-07-26T16:10:18.381Z,45.00
2022-07-26T16:12:45.389Z,44.50
2022-07-26T16:15:12.841Z,44.00
2022-07-26T16:17:39.930Z,43.40
2022-07-26T16:20:07.517Z,42.80
2022-07-26T16:22:35.092Z,42.40
2022-07-26T16:25:01.970Z,42.00
2022-07-26T16:27:28.856Z,41.60
2022-07-26T16:29:55.730Z,41.20
2022-07-26T16:32:22.713Z,40.80
2022-07-26T16:34:49.677Z,40.60
2022-07-26T16:37:16.615Z,40.30
2022-07-26T16:39:43.484Z,40.10
2022-07-26T16:42:10.365Z,39.90
2022-07-26T16:44:37.458Z,39.70
2022-07-26T16:47:04.722Z,39.50
2022-07-26T16:49:31.851Z,39.30
2022-07-26T16:51:59.108Z,39.20
2022-07-26T16:54:26.297Z,39.10
2022-07-26T16:56:53.266Z,39.00
2022-07-26T16:59:20.119Z,38.80
2022-07-26T17:01:47.035Z,38.70
2022-07-26T17:04:14.100Z,38.60
2022-07-26T17:06:40.960Z,38.40
2022-07-26T17:09:15.793Z,38.30
2022-07-26T17:11:42.993Z,38.20
2022-07-26T17:14:09.905Z,38.00
2022-07-26T17:16:37.109Z,37.90
2022-07-26T17:19:04.041Z,37.80
2022-07-26T17:21:30.972Z,37.70
2022-07-26T17:24:00.510Z,37.60
2022-07-26T17:26:30.482Z,37.60
2022-07-26T17:28:57.814Z,37.40
2022-07-26T17:31:24.776Z,37.30
2022-07-26T17:33:51.712Z,37.20
2022-07-26T17:36:19.328Z,37.10
2022-07-26T17:38:46.390Z,37.10
2022-07-26T17:41:18.264Z,37.00
2022-07-26T17:43:45.558Z,36.90
2022-07-26T17:46:12.524Z,36.80
2022-07-26T17:48:39.996Z,36.70
2022-07-26T17:51:07.089Z,36.60
2022-07-26T17:53:34.565Z,36.50
2022-07-26T17:56:02.262Z,36.40
2022-07-26T17:58:29.216Z,36.30
2022-07-26T18:00:56.097Z,36.20
2022-07-26T18:03:23.336Z,36.00
2022-07-26T18:05:51.312Z,35.90
2022-07-26T18:08:18.537Z,35.90
2022-07-26T18:10:50.515Z,35.80
2022-07-26T18:13:18.109Z,35.70
2022-07-26T18:15:45.391Z,35.60
2022-07-26T18:18:12.398Z,35.50
2022-07-26T18:20:39.556Z,35.40
2022-07-26T18:23:06.496Z,35.30
2022-07-26T18:25:33.471Z,35.30
2022-07-26T18:28:06.341Z,35.20
2022-07-26T18:30:34.159Z,35.20
2022-07-26T18:33:01.450Z,35.10
2022-07-26T18:35:28.586Z,35.00
2022-07-26T18:37:55.572Z,35.00
2022-07-26T18:40:25.073Z,34.90
2022-07-26T18:42:52.515Z,34.90
2022-07-26T18:45:19.412Z,34.80
2022-07-26T18:47:46.738Z,34.70
2022-07-26T18:50:17.046Z,34.60
2022-07-26T18:52:44.647Z,34.60
2022-07-26T18:55:13.236Z,34.50
2022-07-26T18:57:41.991Z,34.40
2022-07-26T19:00:11.698Z,34.40
2022-07-26T19:02:38.853Z,34.30
2022-07-26T19:05:06.094Z,34.20
2022-07-26T19:07:33.025Z,34.20
2022-07-26T19:10:00.349Z,34.10
2022-07-26T19:12:28.053Z,34.10
2022-07-26T19:14:55.388Z,34.00
2022-07-26T19:17:22.507Z,33.90
2022-07-26T19:19:49.383Z,33.90
2022-07-26T19:22:16.223Z,33.80
2022-07-26T19:24:43.212Z,33.80
2022-07-26T19:27:10.451Z,33.70
2022-07-26T19:29:38.217Z,33.70
2022-07-26T19:32:05.578Z,33.60
2022-07-26T19:34:32.728Z,33.60
2022-07-26T19:36:59.788Z,33.50
2022-07-26T19:39:26.720Z,33.50
2022-07-26T19:41:53.748Z,33.40
2022-07-26T19:44:20.635Z,33.40
2022-07-26T19:46:47.681Z,33.40
2022-07-26T19:49:17.014Z,33.40
2022-07-26T19:51:44.184Z,33.30
2022-07-26T19:54:11.765Z,33.30
2022-07-26T19:56:40.049Z,33.30
2022-07-26T19:59:06.970Z,33.20
2022-07-26T20:01:34.004Z,33.20
2022-07-26T20:04:02.973Z,33.10
2022-07-26T20:06:30.011Z,33.10
2022-07-26T20:08:56.937Z,33.10
2022-07-26T20:11:24.939Z,33.10
2022-07-26T20:13:51.867Z,33.10
2022-07-26T20:16:19.073Z,33.00
2022-07-26T20:18:46.553Z,33.00
2022-07-26T20:21:13.421Z,33.00
2022-07-26T20:23:40.607Z,33.00
2022-07-26T20:26:07.485Z,32.90
2022-07-26T20:28:34.337Z,32.90
2022-07-26T20:31:01.413Z,32.90
2022-07-26T20:33:28.437Z,32.90
2022-07-26T20:35:55.531Z,32.80
2022-07-26T20:38:22.695Z,32.80
2022-07-26T20:40:49.879Z,32.80
2022-07-26T20:43:18.040Z,32.80
2022-07-26T20:45:45.205Z,32.80
2022-07-26T20:48:12.094Z,32.80
2022-07-26T20:50:38.985Z,32.70
2022-07-26T20:53:05.917Z,32.70
2022-07-26T20:55:32.805Z,32.70
2022-07-26T20:57:59.709Z,32.70
2022-07-26T21:00:27.329Z,32.70
2022-07-26T21:02:54.313Z,32.70
2022-07-26T21:05:21.361Z,32.70
2022-07-26T21:07:55.770Z,32.70
2022-07-26T21:10:27.781Z,32.60
2022-07-26T21:12:57.433Z,32.60
2022-07-26T21:15:24.428Z,32.60
2022-07-26T21:17:52.516Z,32.50
2022-07-26T21:20:20.134Z,32.40
2022-07-26T21:22:47.077Z,32.40
2022-07-26T21:25:13.982Z,32.40
2022-07-26T21:27:40.946Z,32.30
2022-07-26T21:30:08.838Z,32.20
2022-07-26T21:32:35.737Z,32.20
2022-07-26T21:35:02.878Z,32.20
2022-07-26T21:37:30.201Z,32.10
2022-07-26T21:39:57.054Z,32.10
2022-07-26T21:42:28.152Z,32.10
2022-07-26T21:44:55.006Z,32.00
2022-07-26T21:47:21.879Z,32.00
2022-07-26T21:49:49.132Z,32.00
2022-07-26T21:52:15.969Z,32.00
2022-07-26T21:54:42.807Z,32.00
2022-07-26T21:57:09.704Z,32.10
2022-07-26T21:59:36.538Z,32.00
2022-07-26T22:02:03.472Z,32.00
2022-07-26T22:04:30.929Z,32.00
2022-07-26T22:06:57.769Z,31.90
2022-07-26T22:09:24.682Z,31.90
2022-07-26T22:11:53.150Z,31.90
2022-07-26T22:14:20.099Z,31.90
2022-07-26T22:16:49.968Z,31.90
2022-07-26T22:19:16.916Z,31.80
2022-07-26T22:21:43.862Z,31.80
2022-07-26T22:24:10.840Z,31.80
2022-07-26T22:26:37.872Z,31.80
2022-07-26T22:29:04.738Z,31.80
2022-07-26T22:31:31.669Z,31.70
2022-07-26T22:33:58.561Z,31.70
2022-07-26T22:36:25.413Z,31.70
2022-07-26T22:38:52.278Z,31.70
2022-07-26T22:41:19.851Z,31.70
2022-07-26T22:43:46.749Z,31.60
2022-07-26T22:46:13.688Z,31.60
2022-07-26T22:48:45.937Z,31.60
2022-07-26T22:51:14.774Z,31.60
2022-07-26T22:53:41.713Z,31.60
2022-07-26T22:56:08.764Z,31.50
2022-07-26T22:58:35.627Z,31.50
2022-07-26T23:01:02.660Z,31.50
2022-07-26T23:03:29.629Z,31.50
2022-07-26T23:05:57.172Z,31.50
2022-07-26T23:08:46.016Z,31.50
2022-07-26T23:11:10.901Z,31.50
2022-07-26T23:13:37.821Z,31.50
2022-07-26T23:16:05.036Z,31.50
2022-07-26T23:18:33.628Z,31.40
2022-07-26T23:21:00.943Z,31.40
2022-07-26T23:23:29.901Z,31.40
2022-07-26T23:25:57.989Z,31.40
2022-07-26T23:28:37.250Z,31.40
2022-07-26T23:31:10.279Z,31.40
2022-07-26T23:33:51.653Z,31.40
2022-07-26T23:36:22.915Z,31.30
2022-07-26T23:38:49.928Z,31.30
2022-07-26T23:41:16.877Z,31.30
2022-07-26T23:43:43.732Z,31.20
2022-07-26T23:46:11.214Z,31.20
2022-07-26T23:48:38.165Z,31.20
2022-07-26T23:51:05.129Z,31.10
2022-07-26T23:53:32.009Z,31.10
2022-07-26T23:55:58.867Z,31.10
2022-07-26T23:58:25.721Z,31.00
